Time,TemperatureF,DewpointF,PressureIn,WindDirection,WindDirectionDegrees,WindSpeedMPH,WindSpeedGustMPH,Humidity,HourlyPrecipIn,Conditions,Clouds,dailyrainin,SoftwareType,DateUTC
2013-07-01 00:03:00,68.1,49.8,29.45,North,0,0.0,4.6,52,0.00,,---,0.00,VWS V14.00,2013-07-01 05:03:00,
2013-07-01 00:08:00,67.8,50.1,29.45,North,0,5.8,5.8,53,0.00,,---,0.00,VWS V14.00,2013-07-01 05:08:00,
2013-07-01 00:13:00,67.8,49.5,29.45,North,0,0.0,0.0,52,0.00,,---,0.00,VWS V14.00,2013-07-01 05:13:00,
2013-07-01 00:18:00,67.8,50.1,29.45,North,0,0.0,0.0,53,0.00,,---,0.00,VWS V14.00,2013-07-01 05:18:00,
2013-07-01 00:23:00,67.6,49.4,29.45,North,0,6.0,6.0,52,0.00,,---,0.00,VWS V14.00,2013-07-01 05:23:00,
2013-07-01 00:28:00,67.4,49.2,29.45,North,0,4.0,4.0,52,0.00,,---,0.00,VWS V14.00,2013-07-01 05:28:00,
2013-07-01 00:33:00,67.2,49.0,29.45,North,0,0.0,0.0,52,0.00,,---,0.00,VWS V14.00,2013-07-01 05:33:00,
2013-07-01 00:38:00,67.2,49.0,29.45,NNE,22,0.0,0.0,52,0.00,,---,0.00,VWS V14.00,2013-07-01 05:38:00,
2013-07-01 00:43:00,67.1,49.4,29.45,North,0,0.0,0.0,53,0.00,,---,0.00,VWS V14.00,2013-07-01 05:43:00,
2013-07-01 00:48:00,66.9,49.2,29.45,North,0,0.0,0.0,53,0.00,,---,0.00,VWS V14.00,2013-07-01 05:48:00,
2013-07-01 00:53:00,66.7,49.5,29.45,NNE,22,0.0,0.0,54,0.00,,---,0.00,VWS V14.00,2013-07-01 05:53:00,
2013-07-01 00:58:00,66.7,49.5,29.45,North,0,0.0,0.0,54,0.00,,---,0.00,VWS V14.00,2013-07-01 05:58:00,
2013-07-01 01:03:00,66.5,49.8,29.45,NNE,22,0.0,0.0,55,0.00,,---,0.00,VWS V14.00,2013-07-01 06:03:00,
2013-07-01 01:08:00,66.3,49.7,29.45,North,0,0.0,0.0,55,0.00,,---,0.00,VWS V14.00,2013-07-01 06:08:00,
2013-07-01 01:13:00,66.2,49.6,29.45,North,0,0.0,0.0,55,0.00,,---,0.00,VWS V14.00,2013-07-01 06:13:00,
2013-07-01 01:18:00,66.0,49.9,29.45,North,0,0.0,0.0,56,0.00,,---,0.00,VWS V14.00,2013-07-01 06:18:00,
2013-07-01 01:23:00,66.0,49.9,29.45,North,0,0.0,0.0,56,0.00,,---,0.00,VWS V14.00,2013-07-01 06:23:00,
2013-07-01 01:28:00,65.8,50.2,29.45,North,0,0.0,0.0,57,0.00,,---,0.00,VWS V14.00,2013-07-01 06:28:00,
2013-07-01 01:33:00,65.6,50.0,29.45,NNE,22,0.0,0.0,57,0.00,,---,0.00,VWS V14.00,2013-07-01 06:33:00,
2013-07-01 01:38:00,65.4,50.2,29.45,North,0,0.0,0.0,58,0.00,,---,0.00,VWS V14.00,2013-07-01 06:38:00,
2013-07-01 01:43:00,65.3,50.6,29.45,NNE,22,0.0,0.0,59,0.00,,---,0.00,VWS V14.00,2013-07-01 06:43:00,
2013-07-01 01:48:00,65.1,50.9,29.45,North,0,0.0,0.0,60,0.00,,---,0.00,VWS V14.00,2013-07-01 06:48:00,
2013-07-01 01:54:00,64.9,51.2,29.45,North,0,0.0,0.0,61,0.00,,---,0.00,VWS V14.00,2013-07-01 06:54:00,
2013-07-01 01:59:00,64.9,51.6,29.45,North,0,0.0,0.0,62,0.00,,---,0.00,VWS V14.00,2013-07-01 06:59:00,
2013-07-01 02:04:00,64.7,51.4,29.44,North,0,0.0,0.0,62,0.00,,---,0.00,VWS V14.00,2013-07-01 07:04:00,
2013-07-01 02:09:00,64.5,51.6,29.45,North,0,0.0,0.0,63,0.00,,---,0.00,VWS V14.00,2013-07-01 07:09:00,
2013-07-01 02:14:00,64.5,52.1,29.44,North,0,0.0,0.0,64,0.00,,---,0.00,VWS V14.00,2013-07-01 07:14:00,
2013-07-01 02:19:00,64.4,52.0,29.44,North,0,0.0,0.0,64,0.00,,---,0.00,VWS V14.00,2013-07-01 07:19:00,
2013-07-01 02:24:00,64.2,51.8,29.44,North,0,0.0,0.0,64,0.00,,---,0.00,VWS V14.00,2013-07-01 07:24:00,
2013-07-01 02:29:00,64.2,51.8,29.44,NNE,22,0.0,0.0,64,0.00,,---,0.00,VWS V14.00,2013-07-01 07:29:00,
2013-07-01 02:34:00,64.2,51.8,29.44,NW,315,0.0,0.0,64,0.00,,---,0.00,VWS V14.00,2013-07-01 07:34:00,
2013-07-01 02:39:00,64.2,51.4,29.44,NNE,22,0.0,0.0,63,0.00,,---,0.00,VWS V14.00,2013-07-01 07:39:00,
2013-07-01 02:44:00,64.0,51.6,29.44,NNE,22,0.0,0.0,64,0.00,,---,0.00,VWS V14.00,2013-07-01 07:44:00,
2013-07-01 02:49:00,64.0,51.2,29.44,North,0,0.0,0.0,63,0.00,,---,0.00,VWS V14.00,2013-07-01 07:49:00,
2013-07-01 02:54:00,64.0,51.6,29.44,North,0,0.0,0.0,64,0.00,,---,0.00,VWS V14.00,2013-07-01 07:54:00,
2013-07-01 02:59:00,64.0,51.2,29.44,North,0,0.0,0.0,63,0.00,,---,0.00,VWS V14.00,2013-07-01 07:59:00,
2013-07-01 03:04:00,63.8,51.0,29.44,NNE,22,0.0,0.0,63,0.00,,---,0.00,VWS V14.00,2013-07-01 08:04:00,
2013-07-01 03:09:00,63.6,51.2,29.44,North,0,0.0,0.0,64,0.00,,---,0.00,VWS V14.00,2013-07-01 08:09:00,
2013-07-01 03:14:00,63.6,51.2,29.45,NNE,22,0.0,0.0,64,0.00,,---,0.00,VWS V14.00,2013-07-01 08:14:00,
2013-07-01 03:19:00,63.5,51.1,29.44,NNE,22,0.0,0.0,64,0.00,,---,0.00,VWS V14.00,2013-07-01 08:19:00,
2013-07-01 03:24:00,63.3,51.3,29.45,North,0,5.1,5.1,65,0.00,,---,0.00,VWS V14.00,2013-07-01 08:24:00,
2013-07-01 03:29:00,63.3,51.3,29.44,North,0,0.0,0.2,65,0.00,,---,0.00,VWS V14.00,2013-07-01 08:29:00,
2013-07-01 03:34:00,63.1,51.2,29.44,North,0,0.0,0.0,65,0.00,,---,0.00,VWS V14.00,2013-07-01 08:34:00,
2013-07-01 03:39:00,63.1,51.2,29.45,North,0,0.0,0.0,65,0.00,,---,0.00,VWS V14.00,2013-07-01 08:39:00,
2013-07-01 03:44:00,63.1,51.2,29.45,North,0,0.0,0.0,65,0.00,,---,0.00,VWS V14.00,2013-07-01 08:44:00,
2013-07-01 03:49:00,63.1,51.6,29.45,North,0,0.0,0.0,66,0.00,,---,0.00,VWS V14.00,2013-07-01 08:49:00,
2013-07-01 03:54:00,63.1,51.6,29.45,North,0,0.0,0.0,66,0.00,,---,0.00,VWS V14.00,2013-07-01 08:54:00,
2013-07-01 03:59:00,62.9,51.4,29.45,NNE,22,0.0,0.0,66,0.00,,---,0.00,VWS V14.00,2013-07-01 08:59:00,
2013-07-01 04:04:00,62.7,51.2,29.45,North,0,0.0,0.0,66,0.00,,---,0.00,VWS V14.00,2013-07-01 09:04:00,
2013-07-01 04:09:00,62.7,51.6,29.45,North,0,0.0,0.0,67,0.00,,---,0.00,VWS V14.00,2013-07-01 09:09:00,
2013-07-01 04:14:00,62.4,51.3,29.45,North,0,0.0,0.0,67,0.00,,---,0.00,VWS V14.00,2013-07-01 09:14:00,
2013-07-01 04:19:00,62.4,51.3,29.45,North,0,0.0,0.0,67,0.00,,---,0.00,VWS V14.00,2013-07-01 09:19:00,
2013-07-01 04:24:00,62.4,51.7,29.45,NNE,22,0.0,0.0,68,0.00,,---,0.00,VWS V14.00,2013-07-01 09:24:00,
2013-07-01 04:29:00,62.4,51.3,29.45,North,0,0.0,0.0,67,0.00,,---,0.00,VWS V14.00,2013-07-01 09:29:00,
2013-07-01 04:34:00,62.4,51.7,29.45,North,0,0.0,0.0,68,0.00,,---,0.00,VWS V14.00,2013-07-01 09:34:00,
2013-07-01 04:39:00,62.4,51.3,29.45,NNE,22,0.0,0.0,67,0.00,,---,0.00,VWS V14.00,2013-07-01 09:39:00,
2013-07-01 04:44:00,62.2,51.1,29.45,NNE,22,0.0,0.0,67,0.00,,---,0.00,VWS V14.00,2013-07-01 09:44:00,
2013-07-01 04:49:00,62.2,51.1,29.45,NNE,22,0.0,0.0,67,0.00,,---,0.00,VWS V14.00,2013-07-01 09:49:00,
2013-07-01 04:54:00,62.2,51.5,29.45,NNE,22,0.0,0.0,68,0.00,,---,0.00,VWS V14.00,2013-07-01 09:54:00,
2013-07-01 04:59:00,62.2,51.5,29.45,NNE,22,0.0,0.0,68,0.00,,---,0.00,VWS V14.00,2013-07-01 09:59:00,
2013-07-01 05:04:00,62.2,51.5,29.45,NNE,22,0.0,0.0,68,0.00,,---,0.00,VWS V14.00,2013-07-01 10:04:00,
2013-07-01 05:09:00,62.2,51.5,29.45,NNE,22,0.0,0.0,68,0.00,,---,0.00,VWS V14.00,2013-07-01 10:09:00,
2013-07-01 05:14:00,62.2,51.5,29.45,NNE,22,0.0,0.0,68,0.00,,---,0.00,VWS V14.00,2013-07-01 10:14:00,
2013-07-01 05:19:00,62.0,51.3,29.45,North,0,0.0,0.0,68,0.00,,---,0.00,VWS V14.00,2013-07-01 10:19:00,
2013-07-01 05:24:00,61.8,51.5,29.45,NNE,22,0.0,0.0,69,0.00,,---,0.00,VWS V14.00,2013-07-01 10:24:00,
2013-07-01 05:29:00,61.8,51.5,29.45,North,0,0.0,0.0,69,0.00,,---,0.00,VWS V14.00,2013-07-01 10:29:00,
2013-07-01 05:34:00,61.7,51.4,29.45,NNE,22,0.0,0.0,69,0.00,,---,0.00,VWS V14.00,2013-07-01 10:34:00,
2013-07-01 05:39:00,61.5,51.6,29.45,North,0,0.0,1.3,70,0.00,,---,0.00,VWS V14.00,2013-07-01 10:39:00,
2013-07-01 05:44:00,61.5,51.6,29.45,North,0,0.0,0.0,70,0.00,,---,0.00,VWS V14.00,2013-07-01 10:44:00,
2013-07-01 05:49:00,61.3,51.8,29.46,North,0,0.0,0.0,71,0.00,,---,0.00,VWS V14.00,2013-07-01 10:49:00,
2013-07-01 05:54:00,61.3,51.8,29.46,NNE,22,0.0,0.0,71,0.00,,---,0.00,VWS V14.00,2013-07-01 10:54:00,
2013-07-01 05:59:00,61.1,51.6,29.46,North,0,0.0,0.0,71,0.00,,---,0.00,VWS V14.00,2013-07-01 10:59:00,
2013-07-01 06:04:00,61.1,52.0,29.46,NNE,22,0.0,0.0,72,0.00,,---,0.00,VWS V14.00,2013-07-01 11:04:00,
2013-07-01 06:09:00,61.1,52.0,29.46,NNE,22,0.0,0.0,72,0.00,,---,0.00,VWS V14.00,2013-07-01 11:09:00,
2013-07-01 06:14:00,61.1,52.0,29.46,NNE,22,0.0,0.0,72,0.00,,---,0.00,VWS V14.00,2013-07-01 11:14:00,
2013-07-01 06:19:00,61.1,52.4,29.46,North,0,0.0,0.0,73,0.00,,---,0.00,VWS V14.00,2013-07-01 11:19:00,
2013-07-01 06:24:00,61.3,52.6,29.47,North,0,0.0,0.0,73,0.00,,---,0.00,VWS V14.00,2013-07-01 11:24:00,
2013-07-01 06:29:00,61.3,52.6,29.47,NNW,338,0.0,0.0,73,0.00,,---,0.00,VWS V14.00,2013-07-01 11:29:00,
2013-07-01 06:34:00,61.5,52.8,29.47,North,0,0.0,0.0,73,0.00,,---,0.00,VWS V14.00,2013-07-01 11:34:00,
2013-07-01 06:39:00,61.5,52.8,29.47,NNE,22,0.0,0.0,73,0.00,,---,0.00,VWS V14.00,2013-07-01 11:39:00,
2013-07-01 06:44:00,61.7,53.0,29.47,NNE,22,0.0,0.0,73,0.00,,---,0.00,VWS V14.00,2013-07-01 11:44:00,
2013-07-01 06:49:00,61.8,53.1,29.47,NNE,22,0.0,0.0,73,0.00,,---,0.00,VWS V14.00,2013-07-01 11:49:00,
2013-07-01 06:54:00,62.2,53.5,29.47,NNE,22,0.0,0.0,73,0.00,,---,0.00,VWS V14.00,2013-07-01 11:54:00,
2013-07-01 06:59:00,62.4,53.6,29.47,North,0,0.0,0.0,73,0.00,,---,0.00,VWS V14.00,2013-07-01 11:59:00,
2013-07-01 07:04:00,62.4,53.6,29.47,North,0,0.0,0.0,73,0.00,,---,0.00,VWS V14.00,2013-07-01 12:04:00,
2013-07-01 07:09:00,62.6,53.8,29.47,NNE,22,0.0,0.0,73,0.00,,---,0.00,VWS V14.00,2013-07-01 12:09:00,
2013-07-01 07:14:00,62.7,53.9,29.47,North,0,0.0,0.0,73,0.00,,---,0.00,VWS V14.00,2013-07-01 12:14:00,
2013-07-01 07:19:00,62.7,53.9,29.47,North,0,0.0,0.0,73,0.00,,---,0.00,VWS V14.00,2013-07-01 12:19:00,
2013-07-01 07:24:00,62.9,54.1,29.47,NNE,22,0.0,0.0,73,0.00,,---,0.00,VWS V14.00,2013-07-01 12:24:00,
2013-07-01 07:29:00,63.1,54.3,29.47,North,0,0.0,0.0,73,0.00,,---,0.00,VWS V14.00,2013-07-01 12:29:00,
2013-07-01 07:34:00,63.1,53.9,29.48,North,0,0.0,0.0,72,0.00,,---,0.00,VWS V14.00,2013-07-01 12:34:00,
2013-07-01 07:39:00,63.3,54.5,29.47,North,0,0.0,0.0,73,0.00,,---,0.00,VWS V14.00,2013-07-01 12:39:00,
2013-07-01 07:44:00,63.3,54.1,29.48,NNE,22,0.0,0.0,72,0.00,,---,0.00,VWS V14.00,2013-07-01 12:44:00,
2013-07-01 07:49:00,63.6,54.8,29.48,NNE,22,0.0,0.0,73,0.00,,---,0.00,VWS V14.00,2013-07-01 12:49:00,
2013-07-01 07:54:00,63.6,54.8,29.48,NNW,338,0.0,0.0,73,0.00,,---,0.00,VWS V14.00,2013-07-01 12:54:00,
2013-07-01 07:59:00,64.2,55.0,29.48,NNW,338,0.0,0.0,72,0.00,,---,0.00,VWS V14.00,2013-07-01 12:59:00,
2013-07-01 08:04:00,64.2,55.0,29.48,NNE,22,0.0,0.0,72,0.00,,---,0.00,VWS V14.00,2013-07-01 13:04:00,
2013-07-01 08:09:00,64.5,55.3,29.48,North,0,0.0,0.0,72,0.00,,---,0.00,VWS V14.00,2013-07-01 13:09:00,
2013-07-01 08:14:00,64.9,55.3,29.48,North,0,0.0,0.0,71,0.00,,---,0.00,VWS V14.00,2013-07-01 13:14:00,
2013-07-01 08:19:00,65.1,55.5,29.48,North,0,0.0,0.0,71,0.00,,---,0.00,VWS V14.00,2013-07-01 13:19:00,
2013-07-01 08:24:00,65.6,56.0,29.48,North,0,0.0,0.0,71,0.00,,---,0.00,VWS V14.00,2013-07-01 13:24:00,
2013-07-01 08:29:00,66.0,56.3,29.48,North,0,0.0,0.0,71,0.00,,---,0.00,VWS V14.00,2013-07-01 13:29:00,
2013-07-01 08:34:00,66.3,56.2,29.48,North,0,0.0,0.0,70,0.00,,---,0.00,VWS V14.00,2013-07-01 13:34:00,
2013-07-01 08:39:00,66.7,56.2,29.48,NNE,22,0.0,0.0,69,0.00,,---,0.00,VWS V14.00,2013-07-01 13:39:00,
2013-07-01 08:45:00,67.2,56.3,29.49,NNE,22,0.8,0.8,68,0.00,,---,0.00,VWS V14.00,2013-07-01 13:45:00,
2013-07-01 08:50:00,67.6,56.7,29.49,North,0,0.0,0.0,68,0.00,,---,0.00,VWS V14.00,2013-07-01 13:50:00,
2013-07-01 08:55:00,68.1,57.2,29.49,NNW,338,1.1,1.1,68,0.00,,---,0.00,VWS V14.00,2013-07-01 13:55:00,
2013-07-01 09:00:00,68.9,57.1,29.48,North,0,0.0,0.0,66,0.00,,---,0.00,VWS V14.00,2013-07-01 14:00:00,
2013-07-01 09:05:00,69.6,57.8,29.49,NNW,338,0.0,0.0,66,0.00,,---,0.00,VWS V14.00,2013-07-01 14:05:00,
2013-07-01 09:10:00,69.9,57.2,29.49,NE,45,0.0,0.0,64,0.00,,---,0.00,VWS V14.00,2013-07-01 14:10:00,
2013-07-01 09:15:00,70.3,57.6,29.48,North,0,0.0,0.8,64,0.00,,---,0.00,VWS V14.00,2013-07-01 14:15:00,
2013-07-01 09:20:00,70.5,57.3,29.48,North,0,0.0,0.0,63,0.00,,---,0.00,VWS V14.00,2013-07-01 14:20:00,
2013-07-01 09:25:00,70.5,56.9,29.48,North,0,0.0,0.0,62,0.00,,---,0.00,VWS V14.00,2013-07-01 14:25:00,
2013-07-01 09:30:00,70.8,57.2,29.48,NNW,338,0.0,5.8,62,0.00,,---,0.00,VWS V14.00,2013-07-01 14:30:00,
2013-07-01 09:35:00,71.0,56.9,29.48,NNW,338,2.6,2.6,61,0.00,,---,0.00,VWS V14.00,2013-07-01 14:35:00,
2013-07-01 09:40:00,71.4,57.3,29.48,North,0,0.0,0.0,61,0.00,,---,0.00,VWS V14.00,2013-07-01 14:40:00,
2013-07-01 09:45:00,71.4,56.8,29.48,North,0,0.0,0.0,60,0.00,,---,0.00,VWS V14.00,2013-07-01 14:45:00,
2013-07-01 09:50:00,71.9,55.9,29.49,NNW,338,3.5,3.5,57,0.00,,---,0.00,VWS V14.00,2013-07-01 14:50:00,
2013-07-01 09:55:00,72.1,56.0,29.48,NNW,338,4.6,4.6,57,0.00,,---,0.00,VWS V14.00,2013-07-01 14:55:00,
2013-07-01 10:00:00,72.3,56.2,29.48,North,0,4.2,4.6,57,0.00,,---,0.00,VWS V14.00,2013-07-01 15:00:00,
2013-07-01 10:05:00,72.6,55.0,29.48,NNW,338,1.3,10.7,54,0.00,,---,0.00,VWS V14.00,2013-07-01 15:05:00,
2013-07-01 10:10:00,72.6,55.0,29.48,North,0,6.9,6.9,54,0.00,,---,0.00,VWS V14.00,2013-07-01 15:10:00,
2013-07-01 10:15:00,72.8,55.2,29.48,North,0,0.0,2.0,54,0.00,,---,0.00,VWS V14.00,2013-07-01 15:15:00,
2013-07-01 10:20:00,73.0,55.9,29.48,North,0,2.4,2.4,55,0.00,,---,0.00,VWS V14.00,2013-07-01 15:20:00,
2013-07-01 10:25:00,73.2,54.5,29.48,NNE,22,4.4,4.4,52,0.00,,---,0.00,VWS V14.00,2013-07-01 15:25:00,
2013-07-01 10:30:00,73.2,54.5,29.49,NE,45,7.3,7.3,52,0.00,,---,0.00,VWS V14.00,2013-07-01 15:30:00,
2013-07-01 10:35:00,73.5,55.9,29.49,NNE,22,1.7,1.7,54,0.00,,---,0.00,VWS V14.00,2013-07-01 15:35:00,
2013-07-01 10:40:00,73.7,56.0,29.49,North,0,2.9,2.9,54,0.00,,---,0.00,VWS V14.00,2013-07-01 15:40:00,
2013-07-01 10:45:00,73.9,56.2,29.48,NNE,22,6.4,6.4,54,0.00,,---,0.00,VWS V14.00,2013-07-01 15:45:00,
2013-07-01 10:50:00,74.3,56.6,29.49,North,0,0.0,4.2,54,0.00,,---,0.00,VWS V14.00,2013-07-01 15:50:00,
2013-07-01 10:55:00,74.4,56.7,29.49,NNE,22,3.1,9.6,54,0.00,,---,0.00,VWS V14.00,2013-07-01 15:55:00,
2013-07-01 11:00:00,74.8,57.6,29.48,North,0,3.3,3.3,55,0.00,,---,0.00,VWS V14.00,2013-07-01 16:00:00,
2013-07-01 11:05:00,75.0,57.2,29.48,North,0,3.3,3.3,54,0.00,,---,0.00,VWS V14.00,2013-07-01 16:05:00,
2013-07-01 11:10:00,75.3,57.5,29.48,North,0,5.8,5.8,54,0.00,,---,0.00,VWS V14.00,2013-07-01 16:10:00,
2013-07-01 11:15:00,75.3,57.5,29.48,North,0,0.0,0.0,54,0.00,,---,0.00,VWS V14.00,2013-07-01 16:15:00,
2013-07-01 11:20:00,75.3,57.0,29.48,North,0,0.0,8.7,53,0.00,,---,0.00,VWS V14.00,2013-07-01 16:20:00,
2013-07-01 11:25:00,75.3,57.0,29.48,NNE,22,6.7,8.0,53,0.00,,---,0.00,VWS V14.00,2013-07-01 16:25:00,
2013-07-01 11:30:00,75.5,57.7,29.48,North,0,0.0,2.4,54,0.00,,---,0.00,VWS V14.00,2013-07-01 16:30:00,
2013-07-01 11:35:00,75.9,57.0,29.48,NNE,22,0.0,0.0,52,0.00,,---,0.00,VWS V14.00,2013-07-01 16:35:00,
2013-07-01 11:41:00,75.9,57.6,29.48,NNE,22,7.1,7.3,53,0.00,,---,0.00,VWS V14.00,2013-07-01 16:41:00,
2013-07-01 11:46:00,75.9,57.0,29.48,North,0,6.0,8.5,52,0.00,,---,0.00,VWS V14.00,2013-07-01 16:46:00,
2013-07-01 11:51:00,75.7,57.9,29.48,North,0,6.0,6.4,54,0.00,,---,0.00,VWS V14.00,2013-07-01 16:51:00,
2013-07-01 11:56:00,76.2,57.8,29.48,North,0,1.7,3.8,53,0.00,,---,0.00,VWS V14.00,2013-07-01 16:56:00,
2013-07-01 12:02:00,76.6,57.7,29.48,North,0,4.2,4.4,52,0.00,,---,0.00,VWS V14.00,2013-07-01 17:02:00,
2013-07-01 12:07:00,76.6,58.2,29.48,North,0,5.1,5.1,53,0.00,,---,0.00,VWS V14.00,2013-07-01 17:07:00,
2013-07-01 12:12:00,76.6,57.1,29.49,ENE,68,6.9,6.9,51,0.00,,---,0.00,VWS V14.00,2013-07-01 17:12:00,
2013-07-01 12:17:00,76.8,57.9,29.48,NNW,338,0.0,7.6,52,0.00,,---,0.00,VWS V14.00,2013-07-01 17:17:00,
2013-07-01 12:22:00,76.8,57.3,29.48,NE,45,7.6,7.6,51,0.00,,---,0.00,VWS V14.00,2013-07-01 17:22:00,
2013-07-01 12:27:00,77.0,57.5,29.49,NNE,22,3.8,3.8,51,0.00,,---,0.00,VWS V14.00,2013-07-01 17:27:00,
2013-07-01 12:32:00,77.1,57.6,29.48,NNE,22,3.8,4.6,51,0.00,,---,0.00,VWS V14.00,2013-07-01 17:32:00,
2013-07-01 12:37:00,77.1,58.1,29.48,NE,45,6.9,6.9,52,0.00,,---,0.00,VWS V14.00,2013-07-01 17:37:00,
2013-07-01 12:42:00,77.5,57.4,29.48,NE,45,10.5,10.5,50,0.00,,---,0.00,VWS V14.00,2013-07-01 17:42:00,
2013-07-01 12:47:00,77.5,58.5,29.48,NNE,22,8.5,8.5,52,0.00,,---,0.00,VWS V14.00,2013-07-01 17:47:00,
2013-07-01 12:52:00,77.7,57.6,29.47,NNE,22,10.0,10.0,50,0.00,,---,0.00,VWS V14.00,2013-07-01 17:52:00,
2013-07-01 12:57:00,77.9,58.9,29.48,North,0,3.5,8.9,52,0.00,,---,0.00,VWS V14.00,2013-07-01 17:57:00,
2013-07-01 13:02:00,78.0,58.4,29.47,North,0,6.0,6.0,51,0.00,,---,0.00,VWS V14.00,2013-07-01 18:02:00,
2013-07-01 13:07:00,78.0,57.3,29.47,NNW,338,12.0,12.0,49,0.00,,---,0.00,VWS V14.00,2013-07-01 18:07:00,
2013-07-01 13:12:00,77.9,57.8,29.47,WSW,248,0.0,2.9,50,0.00,,---,0.00,VWS V14.00,2013-07-01 18:12:00,
2013-07-01 13:17:00,78.0,57.3,29.47,WSW,248,9.3,10.7,49,0.00,,---,0.00,VWS V14.00,2013-07-01 18:17:00,
2013-07-01 13:22:00,78.0,57.9,29.47,WSW,248,9.6,9.6,50,0.00,,---,0.00,VWS V14.00,2013-07-01 18:22:00,
2013-07-01 13:27:00,78.4,59.3,29.47,NNE,22,0.0,5.5,52,0.00,,---,0.00,VWS V14.00,2013-07-01 18:27:00,
2013-07-01 13:32:00,78.4,58.2,29.47,WSW,248,1.3,7.1,50,0.00,,---,0.00,VWS V14.00,2013-07-01 18:32:00,
2013-07-01 13:37:00,78.4,58.2,29.47,WSW,248,3.5,8.5,50,0.00,,---,0.00,VWS V14.00,2013-07-01 18:37:00,
2013-07-01 13:42:00,78.2,57.5,29.47,WSW,248,7.6,7.6,49,0.00,,---,0.00,VWS V14.00,2013-07-01 18:42:00,
2013-07-01 13:47:00,78.4,57.7,29.47,WSW,248,6.7,6.7,49,0.00,,---,0.00,VWS V14.00,2013-07-01 18:47:00,
2013-07-01 13:52:00,78.6,59.0,29.47,WSW,248,0.0,5.1,51,0.00,,---,0.00,VWS V14.00,2013-07-01 18:52:00,
2013-07-01 13:57:00,78.6,59.5,29.47,WSW,248,2.9,4.2,52,0.00,,---,0.00,VWS V14.00,2013-07-01 18:57:00,
2013-07-01 14:02:00,79.1,58.9,29.46,WSW,248,6.4,6.4,50,0.00,,---,0.00,VWS V14.00,2013-07-01 19:02:00,
2013-07-01 14:07:00,79.1,58.9,29.46,WSW,248,9.3,9.3,50,0.00,,---,0.00,VWS V14.00,2013-07-01 19:07:00,
2013-07-01 14:12:00,78.9,58.1,29.46,WSW,248,8.2,8.2,49,0.00,,---,0.00,VWS V14.00,2013-07-01 19:12:00,
2013-07-01 14:18:00,78.6,57.9,29.47,WSW,248,5.1,6.2,49,0.00,,---,0.00,VWS V14.00,2013-07-01 19:18:00,
2013-07-01 14:23:00,78.9,58.1,29.46,WSW,248,5.5,5.5,49,0.00,,---,0.00,VWS V14.00,2013-07-01 19:23:00,
2013-07-01 14:28:00,78.8,56.3,29.46,WSW,248,5.1,9.1,46,0.00,,---,0.00,VWS V14.00,2013-07-01 19:28:00,
2013-07-01 14:33:00,78.6,57.3,29.46,WSW,248,8.0,8.0,48,0.00,,---,0.00,VWS V14.00,2013-07-01 19:33:00,
2013-07-01 14:38:00,78.6,55.5,29.47,WSW,248,3.3,3.5,45,0.00,,---,0.00,VWS V14.00,2013-07-01 19:38:00,
2013-07-01 14:43:00,78.6,54.9,29.47,WSW,248,5.5,9.3,44,0.00,,---,0.00,VWS V14.00,2013-07-01 19:43:00,
2013-07-01 14:49:00,78.6,55.5,29.47,WSW,248,7.8,7.8,45,0.00,,---,0.00,VWS V14.00,2013-07-01 19:49:00,
2013-07-01 14:54:00,78.6,55.5,29.47,WSW,248,2.9,5.8,45,0.00,,---,0.00,VWS V14.00,2013-07-01 19:54:00,
2013-07-01 14:59:00,78.6,56.1,29.47,WSW,248,7.3,7.3,46,0.00,,---,0.00,VWS V14.00,2013-07-01 19:59:00,
2013-07-01 15:04:00,78.6,54.9,29.47,North,0,6.7,7.8,44,0.00,,---,0.00,VWS V14.00,2013-07-01 20:04:00,
2013-07-01 15:09:00,78.6,55.5,29.47,WSW,248,14.7,14.7,45,0.00,,---,0.00,VWS V14.00,2013-07-01 20:09:00,
2013-07-01 15:14:00,78.4,54.7,29.47,WSW,248,5.5,5.5,44,0.00,,---,0.00,VWS V14.00,2013-07-01 20:14:00,
2013-07-01 15:19:00,78.6,54.9,29.47,WSW,248,2.9,6.9,44,0.00,,---,0.00,VWS V14.00,2013-07-01 20:19:00,
2013-07-01 15:24:00,78.6,54.9,29.47,NW,315,6.2,7.3,44,0.00,,---,0.00,VWS V14.00,2013-07-01 20:24:00,
2013-07-01 15:29:00,78.9,54.5,29.46,North,0,4.2,4.2,43,0.00,,---,0.00,VWS V14.00,2013-07-01 20:29:00,
2013-07-01 15:34:00,78.9,55.2,29.47,NNE,22,8.2,8.2,44,0.00,,---,0.00,VWS V14.00,2013-07-01 20:34:00,
2013-07-01 15:39:00,79.1,55.3,29.46,North,0,7.3,7.3,44,0.00,,---,0.00,VWS V14.00,2013-07-01 20:39:00,
2013-07-01 15:44:00,79.3,54.9,29.46,North,0,7.8,7.8,43,0.00,,---,0.00,VWS V14.00,2013-07-01 20:44:00,
2013-07-01 15:49:00,79.1,55.3,29.46,North,0,2.0,4.6,44,0.00,,---,0.00,VWS V14.00,2013-07-01 20:49:00,
2013-07-01 15:54:00,79.3,54.9,29.46,NW,315,8.9,8.9,43,0.00,,---,0.00,VWS V14.00,2013-07-01 20:54:00,
2013-07-01 15:59:00,79.3,54.9,29.46,NNE,22,3.5,5.3,43,0.00,,---,0.00,VWS V14.00,2013-07-01 20:59:00,
2013-07-01 16:04:00,79.3,54.2,29.46,NNE,22,14.7,14.7,42,0.00,,---,0.00,VWS V14.00,2013-07-01 21:04:00,
2013-07-01 16:09:00,78.9,54.5,29.46,North,0,4.2,10.7,43,0.00,,---,0.00,VWS V14.00,2013-07-01 21:09:00,
2013-07-01 16:14:00,79.1,54.1,29.46,NNE,22,9.6,9.6,42,0.00,,---,0.00,VWS V14.00,2013-07-01 21:14:00,
2013-07-01 16:19:00,78.9,54.5,29.46,North,0,8.7,8.7,43,0.00,,---,0.00,VWS V14.00,2013-07-01 21:19:00,
2013-07-01 16:24:00,78.9,54.5,29.45,NNE,22,8.2,8.2,43,0.00,,---,0.00,VWS V14.00,2013-07-01 21:24:00,
2013-07-01 16:29:00,78.9,54.5,29.45,North,0,7.1,7.1,43,0.00,,---,0.00,VWS V14.00,2013-07-01 21:29:00,
2013-07-01 16:34:00,78.9,54.5,29.45,NNE,22,1.7,4.4,43,0.00,,---,0.00,VWS V14.00,2013-07-01 21:34:00,
2013-07-01 16:39:00,78.9,55.2,29.46,NNE,22,9.8,9.8,44,0.00,,---,0.00,VWS V14.00,2013-07-01 21:39:00,
2013-07-01 16:44:00,78.6,53.0,29.45,North,0,10.0,10.0,41,0.00,,---,0.00,VWS V14.00,2013-07-01 21:44:00,
2013-07-01 16:49:00,78.4,54.1,29.45,NNE,22,4.2,4.9,43,0.00,,---,0.00,VWS V14.00,2013-07-01 21:49:00,
2013-07-01 16:54:00,78.2,53.9,29.45,North,0,8.2,8.2,43,0.00,,---,0.00,VWS V14.00,2013-07-01 21:54:00,
2013-07-01 16:59:00,78.0,54.3,29.46,NNE,22,9.1,9.1,44,0.00,,---,0.00,VWS V14.00,2013-07-01 21:59:00,
2013-07-01 17:04:00,77.9,54.3,29.46,NNE,22,4.2,11.8,44,0.00,,---,0.00,VWS V14.00,2013-07-01 22:04:00,
2013-07-01 17:09:00,77.7,54.1,29.46,North,0,2.6,6.4,44,0.00,,---,0.00,VWS V14.00,2013-07-01 22:09:00,
2013-07-01 17:14:00,77.7,54.1,29.46,North,0,7.3,7.3,44,0.00,,---,0.00,VWS V14.00,2013-07-01 22:14:00,
2013-07-01 17:19:00,77.7,54.1,29.46,NNE,22,4.6,5.3,44,0.00,,---,0.00,VWS V14.00,2013-07-01 22:19:00,
2013-07-01 17:24:00,77.7,54.1,29.46,North,0,6.0,6.0,44,0.00,,---,0.00,VWS V14.00,2013-07-01 22:24:00,
2013-07-01 17:29:00,77.7,54.1,29.46,North,0,2.4,8.2,44,0.00,,---,0.00,VWS V14.00,2013-07-01 22:29:00,
2013-07-01 17:34:00,77.5,53.9,29.46,NNE,22,9.6,9.6,44,0.00,,---,0.00,VWS V14.00,2013-07-01 22:34:00,
2013-07-01 17:39:00,77.5,54.5,29.46,North,0,4.0,4.0,45,0.00,,---,0.00,VWS V14.00,2013-07-01 22:39:00,
2013-07-01 17:44:00,77.3,54.3,29.46,North,0,4.0,6.7,45,0.00,,---,0.00,VWS V14.00,2013-07-01 22:44:00,
2013-07-01 17:49:00,77.3,54.3,29.46,NNE,22,0.0,4.6,45,0.00,,---,0.00,VWS V14.00,2013-07-01 22:49:00,
2013-07-01 17:54:00,77.1,54.2,29.46,North,0,7.3,7.3,45,0.00,,---,0.00,VWS V14.00,2013-07-01 22:54:00,
2013-07-01 17:59:00,76.8,53.9,29.46,NNW,338,4.9,5.3,45,0.00,,---,0.00,VWS V14.00,2013-07-01 22:59:00,
2013-07-01 18:04:00,76.8,53.9,29.46,North,0,6.4,6.4,45,0.00,,---,0.00,VWS V14.00,2013-07-01 23:04:00,
2013-07-01 18:09:00,76.8,53.9,29.45,North,0,7.1,7.1,45,0.00,,---,0.00,VWS V14.00,2013-07-01 23:09:00,
2013-07-01 18:14:00,76.8,53.9,29.45,NNE,22,3.1,4.4,45,0.00,,---,0.00,VWS V14.00,2013-07-01 23:14:00,
2013-07-01 18:19:00,76.6,54.3,29.46,NNW,338,9.1,9.1,46,0.00,,---,0.00,VWS V14.00,2013-07-01 23:19:00,
2013-07-01 18:24:00,76.6,54.3,29.46,NNE,22,6.7,6.7,46,0.00,,---,0.00,VWS V14.00,2013-07-01 23:24:00,
2013-07-01 18:29:00,76.4,54.1,29.47,North,0,6.0,6.0,46,0.00,,---,0.00,VWS V14.00,2013-07-01 23:29:00,
2013-07-01 18:34:00,76.2,53.9,29.47,NE,45,8.0,8.0,46,0.00,,---,0.00,VWS V14.00,2013-07-01 23:34:00,
2013-07-01 18:39:00,76.1,54.4,29.46,NNE,22,10.2,10.2,47,0.00,,---,0.00,VWS V14.00,2013-07-01 23:39:00,
2013-07-01 18:44:00,75.9,54.8,29.47,North,0,7.6,7.6,48,0.00,,---,0.00,VWS V14.00,2013-07-01 23:44:00,
2013-07-01 18:49:00,75.9,54.8,29.47,NNE,22,4.6,4.6,48,0.00,,---,0.00,VWS V14.00,2013-07-01 23:49:00,
2013-07-01 18:54:00,75.7,54.6,29.47,North,0,5.5,5.5,48,0.00,,---,0.00,VWS V14.00,2013-07-01 23:54:00,
2013-07-01 18:59:00,75.3,54.3,29.47,North,0,3.1,7.6,48,0.00,,---,0.00,VWS V14.00,2013-07-01 23:59:00,
2013-07-01 19:04:00,75.0,54.6,29.46,North,0,1.5,7.6,49,0.00,,---,0.00,VWS V14.00,2013-07-02 00:04:00,
2013-07-01 19:09:00,75.0,54.6,29.46,NNE,22,2.6,4.2,49,0.00,,---,0.00,VWS V14.00,2013-07-02 00:09:00,
2013-07-01 19:14:00,74.8,54.4,29.47,NNE,22,4.2,4.2,49,0.00,,---,0.00,VWS V14.00,2013-07-02 00:14:00,
2013-07-01 19:19:00,74.6,54.8,29.47,NNE,22,0.0,4.6,50,0.00,,---,0.00,VWS V14.00,2013-07-02 00:19:00,
2013-07-01 19:24:00,74.4,54.6,29.47,NNE,22,0.0,0.0,50,0.00,,---,0.00,VWS V14.00,2013-07-02 00:24:00,
2013-07-01 19:29:00,74.3,54.5,29.48,NNE,22,3.3,3.3,50,0.00,,---,0.00,VWS V14.00,2013-07-02 00:29:00,
2013-07-01 19:34:00,73.9,54.1,29.48,NNE,22,0.0,4.6,50,0.00,,---,0.00,VWS V14.00,2013-07-02 00:34:00,
2013-07-01 19:39:00,73.9,54.1,29.48,North,0,5.3,5.3,50,0.00,,---,0.00,VWS V14.00,2013-07-02 00:39:00,
2013-07-01 19:44:00,73.7,53.9,29.48,North,0,2.9,5.1,50,0.00,,---,0.00,VWS V14.00,2013-07-02 00:44:00,
2013-07-01 19:49:00,73.5,53.7,29.48,North,0,0.0,0.0,50,0.00,,---,0.00,VWS V14.00,2013-07-02 00:49:00,
2013-07-01 19:54:00,73.2,53.5,29.48,North,0,0.0,2.9,50,0.00,,---,0.00,VWS V14.00,2013-07-02 00:54:00,
2013-07-01 19:59:00,73.0,53.3,29.48,NNE,22,0.0,5.1,50,0.00,,---,0.00,VWS V14.00,2013-07-02 00:59:00,
2013-07-01 20:04:00,72.8,52.5,29.48,NNE,22,3.1,4.9,49,0.00,,---,0.00,VWS V14.00,2013-07-02 01:04:00,
2013-07-01 20:09:00,72.8,53.1,29.48,NNE,22,8.7,8.7,50,0.00,,---,0.00,VWS V14.00,2013-07-02 01:09:00,
2013-07-01 20:14:00,72.8,53.1,29.49,NNE,22,0.0,4.4,50,0.00,,---,0.00,VWS V14.00,2013-07-02 01:14:00,
2013-07-01 20:19:00,72.6,52.9,29.49,North,0,4.4,4.4,50,0.00,,---,0.00,VWS V14.00,2013-07-02 01:19:00,
2013-07-01 20:24:00,72.5,52.8,29.49,North,0,3.5,7.1,50,0.00,,---,0.00,VWS V14.00,2013-07-02 01:24:00,
2013-07-01 20:29:00,72.3,53.2,29.49,North,0,1.5,9.3,51,0.00,,---,0.00,VWS V14.00,2013-07-02 01:29:00,
2013-07-01 20:34:00,72.3,53.2,29.49,NNE,22,0.0,1.7,51,0.00,,---,0.00,VWS V14.00,2013-07-02 01:34:00,
2013-07-01 20:39:00,72.1,53.0,29.49,NNE,22,0.0,1.5,51,0.00,,---,0.00,VWS V14.00,2013-07-02 01:39:00,
2013-07-01 20:44:00,71.9,53.3,29.49,North,0,1.5,2.2,52,0.00,,---,0.00,VWS V14.00,2013-07-02 01:44:00,
2013-07-01 20:49:00,71.7,53.2,29.49,North,0,0.0,0.0,52,0.00,,---,0.00,VWS V14.00,2013-07-02 01:49:00,
2013-07-01 20:54:00,71.4,53.4,29.49,NNE,22,0.0,0.0,53,0.00,,---,0.00,VWS V14.00,2013-07-02 01:54:00,
2013-07-01 20:59:00,71.4,53.4,29.49,North,0,0.0,6.7,53,0.00,,---,0.00,VWS V14.00,2013-07-02 01:59:00,
2013-07-01 21:04:00,71.4,53.9,29.49,North,0,0.0,0.0,54,0.00,,---,0.00,VWS V14.00,2013-07-02 02:04:00,
2013-07-01 21:09:00,71.2,53.7,29.49,North,0,3.5,3.5,54,0.00,,---,0.00,VWS V14.00,2013-07-02 02:09:00,
2013-07-01 21:14:00,71.2,54.2,29.49,NNE,22,2.2,2.2,55,0.00,,---,0.00,VWS V14.00,2013-07-02 02:14:00,
2013-07-01 21:19:00,71.2,54.2,29.50,NNE,22,2.4,2.4,55,0.00,,---,0.00,VWS V14.00,2013-07-02 02:19:00,
2013-07-01 21:24:00,71.0,54.5,29.50,NNE,22,2.6,2.6,56,0.00,,---,0.00,VWS V14.00,2013-07-02 02:24:00,
2013-07-01 21:29:00,71.0,54.5,29.50,NNE,22,0.0,2.9,56,0.00,,---,0.00,VWS V14.00,2013-07-02 02:29:00,
2013-07-01 21:34:00,70.8,54.8,29.50,NNE,22,5.5,5.5,57,0.00,,---,0.00,VWS V14.00,2013-07-02 02:34:00,
2013-07-01 21:39:00,70.8,55.3,29.51,NNE,22,2.4,4.9,58,0.00,,---,0.00,VWS V14.00,2013-07-02 02:39:00,
2013-07-01 21:44:00,70.8,55.8,29.51,NE,45,5.8,5.8,59,0.00,,---,0.00,VWS V14.00,2013-07-02 02:44:00,
2013-07-01 21:49:00,71.0,56.9,29.50,NNE,22,3.8,3.8,61,0.00,,---,0.00,VWS V14.00,2013-07-02 02:49:00,
2013-07-01 21:54:00,70.8,57.2,29.51,NE,45,8.2,8.2,62,0.00,,---,0.00,VWS V14.00,2013-07-02 02:54:00,
2013-07-01 21:59:00,70.8,57.6,29.51,NE,45,4.6,4.6,63,0.00,,---,0.00,VWS V14.00,2013-07-02 02:59:00,
2013-07-01 22:04:00,70.7,57.5,29.51,NNE,22,4.2,6.4,63,0.00,,---,0.00,VWS V14.00,2013-07-02 03:04:00,
2013-07-01 22:09:00,70.7,57.5,29.51,NNE,22,8.9,10.0,63,0.00,,---,0.00,VWS V14.00,2013-07-02 03:09:00,
2013-07-01 22:14:00,70.5,57.8,29.51,North,0,4.6,7.3,64,0.00,,---,0.00,VWS V14.00,2013-07-02 03:14:00,
2013-07-01 22:15:00,70.5,57.3,29.51,NNE,22,6.9,6.9,63,0.00,,---,0.00,VWS V14.00,2013-07-02 03:15:00,
2013-07-01 22:20:00,70.3,57.6,29.51,NNE,22,5.5,5.5,64,0.00,,---,0.00,VWS V14.00,2013-07-02 03:20:00,
2013-07-01 22:26:00,69.9,57.6,29.51,NNE,22,4.4,5.1,65,0.00,,---,0.00,VWS V14.00,2013-07-02 03:26:00,
2013-07-01 22:31:00,69.4,57.6,29.51,NE,45,4.6,4.6,66,0.00,,---,0.00,VWS V14.00,2013-07-02 03:31:00,
2013-07-01 22:36:00,69.4,57.6,29.50,NNE,22,2.2,9.1,66,0.00,,---,0.00,VWS V14.00,2013-07-02 03:36:00,
2013-07-01 22:41:00,69.4,57.6,29.51,NE,45,5.5,5.5,66,0.00,,---,0.00,VWS V14.00,2013-07-02 03:41:00,
2013-07-01 22:46:00,69.4,57.1,29.50,NNE,22,6.0,7.3,65,0.00,,---,0.00,VWS V14.00,2013-07-02 03:46:00,
2013-07-01 22:51:00,69.4,57.1,29.51,NNE,22,6.7,6.7,65,0.00,,---,0.00,VWS V14.00,2013-07-02 03:51:00,
2013-07-01 22:56:00,69.4,57.1,29.51,NNE,22,4.4,4.4,65,0.00,,---,0.00,VWS V14.00,2013-07-02 03:56:00,
2013-07-01 23:01:00,69.4,57.1,29.51,NNE,22,7.3,7.3,65,0.00,,---,0.00,VWS V14.00,2013-07-02 04:01:00,
2013-07-01 23:02:00,69.4,57.6,29.51,NNE,22,5.5,7.3,66,0.00,,---,0.00,VWS V14.00,2013-07-02 04:02:00,
2013-07-01 23:04:00,69.4,57.1,29.50,NNE,22,0.0,3.8,65,0.00,,---,0.00,VWS V14.00,2013-07-02 04:04:00,
2013-07-01 23:07:00,69.4,57.1,29.50,North,0,6.4,6.4,65,0.00,,---,0.00,VWS V14.00,2013-07-02 04:07:00,
2013-07-01 23:12:00,69.4,57.1,29.51,North,0,7.1,7.1,65,0.00,,---,0.00,VWS V14.00,2013-07-02 04:12:00,
2013-07-01 23:13:00,69.4,57.1,29.51,North,0,4.2,7.1,65,0.00,,---,0.00,VWS V14.00,2013-07-02 04:13:00,
2013-07-01 23:18:00,69.4,57.1,29.51,NE,45,4.0,4.0,65,0.00,,---,0.00,VWS V14.00,2013-07-02 04:18:00,
2013-07-01 23:23:00,69.0,57.2,29.51,North,0,2.4,2.4,66,0.00,,---,0.00,VWS V14.00,2013-07-02 04:23:00,
2013-07-01 23:28:00,69.0,57.2,29.51,NNE,22,0.0,1.5,66,0.00,,---,0.00,VWS V14.00,2013-07-02 04:28:00,
2013-07-01 23:33:00,68.9,57.1,29.50,North,0,0.0,0.0,66,0.00,,---,0.00,VWS V14.00,2013-07-02 04:33:00,
2013-07-01 23:38:00,68.9,57.1,29.51,North,0,0.0,0.0,66,0.00,,---,0.00,VWS V14.00,2013-07-02 04:38:00,
2013-07-01 23:43:00,68.7,56.9,29.51,NNE,22,0.0,3.1,66,0.00,,---,0.00,VWS V14.00,2013-07-02 04:43:00,
2013-07-01 23:48:00,68.7,57.3,29.51,NNE,22,0.0,0.0,67,0.00,,---,0.00,VWS V14.00,2013-07-02 04:48:00,
2013-07-01 23:53:00,68.5,57.5,29.51,NNE,22,0.0,0.0,68,0.00,,---,0.00,VWS V14.00,2013-07-02 04:53:00,
2013-07-01 23:58:00,68.3,57.8,29.51,NNE,22,0.0,0.0,69,0.00,,---,0.00,VWS V14.00,2013-07-02 04:58:00,